Buoy 43533

sailwx.info

Track history (hours):
 
Tides and Currents Weather Stations Pressure Air Temp Water Temp Dewpoint Dewpoint Depression Visibility Wind Speed Wind Dir Waves Ship Positions

Drifting buoy 43533

Last reported at 2014-Oct-31 17:00 UTC. Time now 2014-Nov-01 06:15 UTC.
Position N 20°51' W 108°22'.

Length 24 m.

Type: Fishing. MMSI: 412466549.

Water temperature 29.1 ° C

Date/timePositionNaut miles runAvg speedWind from/ knotsBaromVisibWave heightAir tempDewpointWater temp
2014-Oct-31 17:00N 20°51' W 108°22'0 0.4 29.1
2014-Oct-31 16:00N 20°50' W 108°23'1 0.5 29.1
2014-Oct-31 14:00N 20°49' W 108°22'0 0.1 29.1
2014-Oct-31 10:00N 20°49' W 108°22'2 1.2 29.2
2014-Oct-31 08:00N 20°47' W 108°20'0 0.0 29.2
2014-Oct-31 07:00N 20°47' W 108°20'0 0.2 29.2
2014-Oct-31 05:00N 20°47' W 108°20'0 0.1 29.3
2014-Oct-31 03:00N 20°47' W 108°20'1 0.4 29.3
2014-Oct-31 00:00N 20°46' W 108°19'1 0.4 29.3
2014-Oct-30 22:00N 20°46' W 108°19'0 0.2 29.4
2014-Oct-30 20:00N 20°45' W 108°19'0 0.0 29.4
2014-Oct-30 19:00N 20°45' W 108°19'1 0.9 29.3
2014-Oct-30 18:00N 20°45' W 108°18'0 0.0 29.3
2014-Oct-30 17:00N 20°45' W 108°18'0 0.5 29.2
2014-Oct-30 16:00N 20°44' W 108°18'2 2.1 29.2
2014-Oct-30 15:00N 20°43' W 108°17'0 0.0 29.2
2014-Oct-30 14:00N 20°43' W 108°17'1 0.5 29.2
2014-Oct-30 12:00N 20°42' W 108°16'0 0.2 29.2
2014-Oct-30 11:00N 20°42' W 108°16'1 0.8 29.2
2014-Oct-30 10:00N 20°41' W 108°15'0 0.0 29.2
2014-Oct-30 09:00N 20°41' W 108°15'2 1.6 29.2
2014-Oct-30 08:00N 20°40' W 108°14'0 0.0 29.2
2014-Oct-30 05:00N 20°40' W 108°14'0 0.2 29.3
2014-Oct-30 04:00N 20°40' W 108°14'1 1.0 29.3
2014-Oct-30 03:00N 20°39' W 108°13'1 0.3 29.3
2014-Oct-30 00:00N 20°38' W 108°13'0 0.0 29.4
2014-Oct-29 23:00N 20°38' W 108°13'0 0.2 29.5
2014-Oct-29 22:00N 20°38' W 108°13'1 0.8 29.6
2014-Oct-29 21:00N 20°38' W 108°13'2 1.5 29.6
2014-Oct-29 20:00N 20°36' W 108°12'0 0.0 29.5
2014-Oct-29 17:00N 20°36' W 108°12'2 1.7 29.3
2014-Oct-29 16:00N 20°35' W 108°12'0 0.1 29.2
2014-Oct-29 13:00N 20°34' W 108°11'1 0.4 29.2
2014-Oct-29 11:00N 20°34' W 108°11'1 0.6 29.2
2014-Oct-29 10:00N 20°33' W 108°11'1 1.3 29.2
2014-Oct-29 09:00N 20°32' W 108°11'0 0.0 29.2
2014-Oct-29 05:00N 20°32' W 108°11'1 0.5 29.3
2014-Oct-29 03:00N 20°31' W 108°10'0 0.0 29.3
2014-Oct-29 02:00N 20°31' W 108°10'1 0.9 29.3
2014-Oct-29 01:00N 20°30' W 108°10'0 0.4 29.3
2014-Oct-29 00:00N 20°30' W 108°09'1 0.6 29.4
2014-Oct-28 23:00N 20°30' W 108°10'0 0.1 29.4
2014-Oct-28 22:00N 20°30' W 108°10'1 0.8 29.5
2014-Oct-28 21:00N 20°29' W 108°09'0 0.1 29.5
2014-Oct-28 20:00N 20°29' W 108°09'1 0.4 29.5
2014-Oct-28 18:00N 20°29' W 108°08'1 0.8 29.4
2014-Oct-28 17:00N 20°29' W 108°08'0 0.3 29.3
2014-Oct-28 16:00N 20°29' W 108°07'2 1.5 29.2
2014-Oct-28 15:00N 20°28' W 108°06'1 0.6 29.2
2014-Oct-28 13:00N 20°28' W 108°05'0 0.2 29.2
2014-Oct-28 12:00N 20°28' W 108°05'2 2.3 29.2
2014-Oct-28 11:00N 20°28' W 108°03'0 0.0 29.2
2014-Oct-28 09:00N 20°28' W 108°03'0 0.0 29.3
2014-Oct-28 08:00N 20°28' W 108°03'2 0.4 29.3
2014-Oct-28 03:00N 20°28' W 108°00'0 0.0 29.3
2014-Oct-28 02:00N 20°28' W 108°00'0 0.3 29.3
2014-Oct-28 01:00N 20°28' W 108°01'1 0.4 29.3
2014-Oct-27 23:00N 20°27' W 108°00'1 0.6 29.4
2014-Oct-27 22:00N 20°27' W 107°60'0 0.0 29.4
2014-Oct-27 20:00N 20°27' W 107°60'2 0.8 29.4
2014-Oct-27 17:00N 20°26' W 107°58'0 0.0 29.3
2014-Oct-27 16:00N 20°26' W 107°58'3 3.4 29.2
2014-Oct-27 15:00N 20°24' W 107°54'1 0.3 29.2
2014-Oct-27 12:00N 20°24' W 107°53'1 1.0 29.2
2014-Oct-27 11:00N 20°24' W 107°52'0 0.0 29.2
2014-Oct-27 10:00N 20°24' W 107°52'3 3.5 29.2
2014-Oct-27 09:00N 20°24' W 107°49'0 0.0 29.2
2014-Oct-27 04:00N 20°24' W 107°49'2 0.5 29.3
2014-Oct-27 00:00N 20°24' W 107°46'0 0.4 29.3
2014-Oct-26 23:00N 20°24' W 107°46'1 1.2 29.4
2014-Oct-26 22:00N 20°24' W 107°45'0 0.3 29.4
2014-Oct-26 21:00N 20°24' W 107°45'0 0.0 29.4
2014-Oct-26 20:00N 20°24' W 107°45'1 0.4 29.4
2014-Oct-26 17:00N 20°23' W 107°44'2 1.8 29.3
2014-Oct-26 16:00N 20°22' W 107°43'0 0.0 29.3
2014-Oct-26 15:00N 20°22' W 107°43'0 0.0 29.2
2014-Oct-26 13:00N 20°22' W 107°43'2 0.9 29.2
2014-Oct-26 11:00N 20°21' W 107°41'0 0.0 29.3
2014-Oct-26 10:00N 20°21' W 107°41'3 2.6 29.3
2014-Oct-26 09:00N 20°21' W 107°38'0 0.0 29.3
2014-Oct-26 08:00N 20°21' W 107°38'0 0.0 29.3
2014-Oct-26 07:00N 20°21' W 107°38'0 0.0 29.3
2014-Oct-26 05:00N 20°21' W 107°38'0 0.1 29.3
2014-Oct-26 02:00N 20°21' W 107°38'1 0.7 29.3
2014-Oct-26 01:00N 20°21' W 107°37'1 0.2 29.3
2014-Oct-25 21:00N 20°21' W 107°36'0 0.0 29.4
2014-Oct-25 20:00N 20°21' W 107°36'1 1.4 29.4
2014-Oct-25 19:00N 20°22' W 107°35'0 0.1 29.3
2014-Oct-25 18:00N 20°22' W 107°35'0 0.0 29.3
2014-Oct-25 17:00N 20°22' W 107°35'1 0.8 29.2
2014-Oct-25 16:00N 20°23' W 107°34'0 0.0 29.2
2014-Oct-25 15:00N 20°23' W 107°34'0 0.2 29.2
2014-Oct-25 13:00N 20°23' W 107°34'1 0.7 29.2
2014-Oct-25 12:00N 20°23' W 107°33'0 0.2 29.2
2014-Oct-25 11:00N 20°23' W 107°33'1 0.4 29.2
2014-Oct-25 09:00N 20°23' W 107°32'1 1.4 29.2
2014-Oct-25 08:00N 20°24' W 107°31'0 0.0 29.2
2014-Oct-25 07:00N 20°24' W 107°31'0 0.0 29.2
2014-Oct-25 05:00N 20°24' W 107°31'1 1.0 29.2
2014-Oct-25 04:00N 20°24' W 107°30'0 0.2 29.3
2014-Oct-25 03:00N 20°24' W 107°30'1 0.4 29.3
2014-Oct-25 01:00N 20°25' W 107°29'1 0.4 29.3
2014-Oct-24 23:00N 20°26' W 107°29'1 0.4 29.4
2014-Oct-24 21:00N 20°26' W 107°28'0 0.0 29.4
2014-Oct-24 19:00N 20°26' W 107°28'2 0.8 29.3
2014-Oct-24 17:00N 20°27' W 107°28'0 0.0 29.2
2014-Oct-24 16:00N 20°27' W 107°28'1 0.6 29.2
2014-Oct-24 14:00N 20°28' W 107°26'0 0.4 29.1
2014-Oct-24 13:00N 20°28' W 107°26'1 0.6 29.1
2014-Oct-24 12:00N 20°28' W 107°25'0 0.2 29.1
2014-Oct-24 10:00N 20°29' W 107°25'1 0.7 29.1
2014-Oct-24 09:00N 20°29' W 107°25'2 0.4 29.1
2014-Oct-24 05:00N 20°30' W 107°23'1 1.1 29.2
2014-Oct-24 04:00N 20°31' W 107°22'0 0.1 29.2
2014-Oct-24 03:00N 20°31' W 107°22'1 1.4 29.2
2014-Oct-24 02:00N 20°32' W 107°21'1 1.4 29.2
2014-Oct-24 01:00N 20°33' W 107°20'0 0.1 29.2
2014-Oct-23 23:00N 20°33' W 107°21'1 1.0 29.3
2014-Oct-23 22:00N 20°33' W 107°20'3 0.9 29.3
2014-Oct-23 19:00N 20°36' W 107°19'1 0.3 29.2
2014-Oct-23 17:00N 20°36' W 107°19'0 0.0 29.1
2014-Oct-23 16:00N 20°36' W 107°19'2 1.7 29.1
2014-Oct-23 15:00N 20°38' W 107°18'0 0.0 29.1
2014-Oct-23 13:00N 20°38' W 107°18'1 0.7 29.1
2014-Oct-23 12:00N 20°38' W 107°17'1 1.0 29.1
2014-Oct-23 11:00N 20°39' W 107°18'1 1.0 29.1
2014-Oct-23 10:00N 20°40' W 107°18'2 0.8 29.1
2014-Oct-23 08:00N 20°40' W 107°17'1 0.4 29.1
2014-Oct-23 05:00N 20°41' W 107°16'0 0.0 29.2
2014-Oct-23 04:00N 20°41' W 107°16'1 1.2 29.2
2014-Oct-23 03:00N 20°42' W 107°15'2 0.6 29.2
2014-Oct-23 00:00N 20°44' W 107°14'1 0.4 29.3
2014-Oct-22 22:00N 20°44' W 107°14'5 1.0 29.4
2014-Oct-22 17:00N 20°49' W 107°13'3 2.6 29.2
2014-Oct-22 16:00N 20°52' W 107°12'2 0.4 29.2
2014-Oct-22 12:00N 20°53' W 107°12'1 1.0 29.2
2014-Oct-22 11:00N 20°54' W 107°12'1 0.7 29.2
2014-Oct-22 10:00N 20°55' W 107°12'5 2.3 29.2
2014-Oct-22 08:00N 20°59' W 107°12'0 0.0 29.2
2014-Oct-22 07:00N 20°59' W 107°12'0 0.0 29.2
2014-Oct-22 05:00N 20°59' W 107°12'1 0.5 29.3
2014-Oct-22 04:00N 20°60' W 107°12'2 1.9 29.3
2014-Oct-22 03:00N 21°02' W 107°12'0 0.0 29.3
2014-Oct-22 02:00N 21°02' W 107°12'1 0.9 29.4
2014-Oct-22 01:00N 21°03' W 107°12'1 1.4 29.5
2014-Oct-22 00:00N 21°04' W 107°12'2 0.9 29.7
2014-Oct-21 22:00N 21°06' W 107°11'2 1.1 30.1
2014-Oct-21 20:00N 21°08' W 107°10'0 0.0 30.3
2014-Oct-21 19:00N 21°08' W 107°10'0 0.0 30.0
2014-Oct-21 18:00N 21°08' W 107°10'   29.6
Track history (hours):
 
Tides and Currents Weather Stations Pressure Air Temp Water Temp Dewpoint Dewpoint Depression Visibility Wind Speed Wind Dir Waves Ship Positions

Drifting buoy 43533

Last reported at 2014-Oct-31 17:00 UTC. Time now 2014-Nov-01 06:15 UTC.
Position N 20°51' W 108°22'.

Length 24 m.

Type: Fishing. MMSI: 412466549.

Water temperature 29.1 ° C

Date/timePositionNaut miles runAvg speedWind from/ knotsBaromVisibWave heightAir tempDewpointWater temp
2014-Oct-31 17:00N 20°51' W 108°22'0 0.4 29.1
2014-Oct-31 16:00N 20°50' W 108°23'1 0.5 29.1
2014-Oct-31 14:00N 20°49' W 108°22'0 0.1 29.1
2014-Oct-31 10:00N 20°49' W 108°22'2 1.2 29.2
2014-Oct-31 08:00N 20°47' W 108°20'0 0.0 29.2
2014-Oct-31 07:00N 20°47' W 108°20'0 0.2 29.2
2014-Oct-31 05:00N 20°47' W 108°20'0 0.1 29.3
2014-Oct-31 03:00N 20°47' W 108°20'1 0.4 29.3
2014-Oct-31 00:00N 20°46' W 108°19'1 0.4 29.3
2014-Oct-30 22:00N 20°46' W 108°19'0 0.2 29.4
2014-Oct-30 20:00N 20°45' W 108°19'0 0.0 29.4
2014-Oct-30 19:00N 20°45' W 108°19'1 0.9 29.3
2014-Oct-30 18:00N 20°45' W 108°18'0 0.0 29.3
2014-Oct-30 17:00N 20°45' W 108°18'0 0.5 29.2
2014-Oct-30 16:00N 20°44' W 108°18'2 2.1 29.2
2014-Oct-30 15:00N 20°43' W 108°17'0 0.0 29.2
2014-Oct-30 14:00N 20°43' W 108°17'1 0.5 29.2
2014-Oct-30 12:00N 20°42' W 108°16'0 0.2 29.2
2014-Oct-30 11:00N 20°42' W 108°16'1 0.8 29.2
2014-Oct-30 10:00N 20°41' W 108°15'0 0.0 29.2
2014-Oct-30 09:00N 20°41' W 108°15'2 1.6 29.2
2014-Oct-30 08:00N 20°40' W 108°14'0 0.0 29.2
2014-Oct-30 05:00N 20°40' W 108°14'0 0.2 29.3
2014-Oct-30 04:00N 20°40' W 108°14'1 1.0 29.3
2014-Oct-30 03:00N 20°39' W 108°13'1 0.3 29.3
2014-Oct-30 00:00N 20°38' W 108°13'0 0.0 29.4
2014-Oct-29 23:00N 20°38' W 108°13'0 0.2 29.5
2014-Oct-29 22:00N 20°38' W 108°13'1 0.8 29.6
2014-Oct-29 21:00N 20°38' W 108°13'2 1.5 29.6
2014-Oct-29 20:00N 20°36' W 108°12'0 0.0 29.5
2014-Oct-29 17:00N 20°36' W 108°12'2 1.7 29.3
2014-Oct-29 16:00N 20°35' W 108°12'0 0.1 29.2
2014-Oct-29 13:00N 20°34' W 108°11'1 0.4 29.2
2014-Oct-29 11:00N 20°34' W 108°11'1 0.6 29.2
2014-Oct-29 10:00N 20°33' W 108°11'1 1.3 29.2
2014-Oct-29 09:00N 20°32' W 108°11'0 0.0 29.2
2014-Oct-29 05:00N 20°32' W 108°11'1 0.5 29.3
2014-Oct-29 03:00N 20°31' W 108°10'0 0.0 29.3
2014-Oct-29 02:00N 20°31' W 108°10'1 0.9 29.3
2014-Oct-29 01:00N 20°30' W 108°10'0 0.4 29.3
2014-Oct-29 00:00N 20°30' W 108°09'1 0.6 29.4
2014-Oct-28 23:00N 20°30' W 108°10'0 0.1 29.4
2014-Oct-28 22:00N 20°30' W 108°10'1 0.8 29.5
2014-Oct-28 21:00N 20°29' W 108°09'0 0.1 29.5
2014-Oct-28 20:00N 20°29' W 108°09'1 0.4 29.5
2014-Oct-28 18:00N 20°29' W 108°08'1 0.8 29.4
2014-Oct-28 17:00N 20°29' W 108°08'0 0.3 29.3
2014-Oct-28 16:00N 20°29' W 108°07'2 1.5 29.2
2014-Oct-28 15:00N 20°28' W 108°06'1 0.6 29.2
2014-Oct-28 13:00N 20°28' W 108°05'0 0.2 29.2
2014-Oct-28 12:00N 20°28' W 108°05'2 2.3 29.2
2014-Oct-28 11:00N 20°28' W 108°03'0 0.0 29.2
2014-Oct-28 09:00N 20°28' W 108°03'0 0.0 29.3
2014-Oct-28 08:00N 20°28' W 108°03'2 0.4 29.3
2014-Oct-28 03:00N 20°28' W 108°00'0 0.0 29.3
2014-Oct-28 02:00N 20°28' W 108°00'0 0.3 29.3
2014-Oct-28 01:00N 20°28' W 108°01'1 0.4 29.3
2014-Oct-27 23:00N 20°27' W 108°00'1 0.6 29.4
2014-Oct-27 22:00N 20°27' W 107°60'0 0.0 29.4
2014-Oct-27 20:00N 20°27' W 107°60'2 0.8 29.4
2014-Oct-27 17:00N 20°26' W 107°58'0 0.0 29.3
2014-Oct-27 16:00N 20°26' W 107°58'3 3.4 29.2
2014-Oct-27 15:00N 20°24' W 107°54'1 0.3 29.2
2014-Oct-27 12:00N 20°24' W 107°53'1 1.0 29.2
2014-Oct-27 11:00N 20°24' W 107°52'0 0.0 29.2
2014-Oct-27 10:00N 20°24' W 107°52'3 3.5 29.2
2014-Oct-27 09:00N 20°24' W 107°49'0 0.0 29.2
2014-Oct-27 04:00N 20°24' W 107°49'2 0.5 29.3
2014-Oct-27 00:00N 20°24' W 107°46'0 0.4 29.3
2014-Oct-26 23:00N 20°24' W 107°46'1 1.2 29.4
2014-Oct-26 22:00N 20°24' W 107°45'0 0.3 29.4
2014-Oct-26 21:00N 20°24' W 107°45'0 0.0 29.4
2014-Oct-26 20:00N 20°24' W 107°45'1 0.4 29.4
2014-Oct-26 17:00N 20°23' W 107°44'2 1.8 29.3
2014-Oct-26 16:00N 20°22' W 107°43'0 0.0 29.3
2014-Oct-26 15:00N 20°22' W 107°43'0 0.0 29.2
2014-Oct-26 13:00N 20°22' W 107°43'2 0.9 29.2
2014-Oct-26 11:00N 20°21' W 107°41'0 0.0 29.3
2014-Oct-26 10:00N 20°21' W 107°41'3 2.6 29.3
2014-Oct-26 09:00N 20°21' W 107°38'0 0.0 29.3
2014-Oct-26 08:00N 20°21' W 107°38'0 0.0 29.3
2014-Oct-26 07:00N 20°21' W 107°38'0 0.0 29.3
2014-Oct-26 05:00N 20°21' W 107°38'0 0.1 29.3
2014-Oct-26 02:00N 20°21' W 107°38'1 0.7 29.3
2014-Oct-26 01:00N 20°21' W 107°37'1 0.2 29.3
2014-Oct-25 21:00N 20°21' W 107°36'0 0.0 29.4
2014-Oct-25 20:00N 20°21' W 107°36'1 1.4 29.4
2014-Oct-25 19:00N 20°22' W 107°35'0 0.1 29.3
2014-Oct-25 18:00N 20°22' W 107°35'0 0.0 29.3
2014-Oct-25 17:00N 20°22' W 107°35'1 0.8 29.2
2014-Oct-25 16:00N 20°23' W 107°34'0 0.0 29.2
2014-Oct-25 15:00N 20°23' W 107°34'0 0.2 29.2
2014-Oct-25 13:00N 20°23' W 107°34'1 0.7 29.2
2014-Oct-25 12:00N 20°23' W 107°33'0 0.2 29.2
2014-Oct-25 11:00N 20°23' W 107°33'1 0.4 29.2
2014-Oct-25 09:00N 20°23' W 107°32'1 1.4 29.2
2014-Oct-25 08:00N 20°24' W 107°31'0 0.0 29.2
2014-Oct-25 07:00N 20°24' W 107°31'0 0.0 29.2
2014-Oct-25 05:00N 20°24' W 107°31'1 1.0 29.2
2014-Oct-25 04:00N 20°24' W 107°30'0 0.2 29.3
2014-Oct-25 03:00N 20°24' W 107°30'1 0.4 29.3
2014-Oct-25 01:00N 20°25' W 107°29'1 0.4 29.3
2014-Oct-24 23:00N 20°26' W 107°29'1 0.4 29.4
2014-Oct-24 21:00N 20°26' W 107°28'0 0.0 29.4
2014-Oct-24 19:00N 20°26' W 107°28'2 0.8 29.3
2014-Oct-24 17:00N 20°27' W 107°28'0 0.0 29.2
2014-Oct-24 16:00N 20°27' W 107°28'1 0.6 29.2
2014-Oct-24 14:00N 20°28' W 107°26'0 0.4 29.1
2014-Oct-24 13:00N 20°28' W 107°26'1 0.6 29.1
2014-Oct-24 12:00N 20°28' W 107°25'0 0.2 29.1
2014-Oct-24 10:00N 20°29' W 107°25'1 0.7 29.1
2014-Oct-24 09:00N 20°29' W 107°25'2 0.4 29.1
2014-Oct-24 05:00N 20°30' W 107°23'1 1.1 29.2
2014-Oct-24 04:00N 20°31' W 107°22'0 0.1 29.2
2014-Oct-24 03:00N 20°31' W 107°22'1 1.4 29.2
2014-Oct-24 02:00N 20°32' W 107°21'1 1.4 29.2
2014-Oct-24 01:00N 20°33' W 107°20'0 0.1 29.2
2014-Oct-23 23:00N 20°33' W 107°21'1 1.0 29.3
2014-Oct-23 22:00N 20°33' W 107°20'3 0.9 29.3
2014-Oct-23 19:00N 20°36' W 107°19'1 0.3 29.2
2014-Oct-23 17:00N 20°36' W 107°19'0 0.0 29.1
2014-Oct-23 16:00N 20°36' W 107°19'2 1.7 29.1
2014-Oct-23 15:00N 20°38' W 107°18'0 0.0 29.1
2014-Oct-23 13:00N 20°38' W 107°18'1 0.7 29.1
2014-Oct-23 12:00N 20°38' W 107°17'1 1.0 29.1
2014-Oct-23 11:00N 20°39' W 107°18'1 1.0 29.1
2014-Oct-23 10:00N 20°40' W 107°18'2 0.8 29.1
2014-Oct-23 08:00N 20°40' W 107°17'1 0.4 29.1
2014-Oct-23 05:00N 20°41' W 107°16'0 0.0 29.2
2014-Oct-23 04:00N 20°41' W 107°16'1 1.2 29.2
2014-Oct-23 03:00N 20°42' W 107°15'2 0.6 29.2
2014-Oct-23 00:00N 20°44' W 107°14'1 0.4 29.3
2014-Oct-22 22:00N 20°44' W 107°14'5 1.0 29.4
2014-Oct-22 17:00N 20°49' W 107°13'3 2.6 29.2
2014-Oct-22 16:00N 20°52' W 107°12'2 0.4 29.2
2014-Oct-22 12:00N 20°53' W 107°12'1 1.0 29.2
2014-Oct-22 11:00N 20°54' W 107°12'1 0.7 29.2
2014-Oct-22 10:00N 20°55' W 107°12'5 2.3 29.2
2014-Oct-22 08:00N 20°59' W 107°12'0 0.0 29.2
2014-Oct-22 07:00N 20°59' W 107°12'0 0.0 29.2
2014-Oct-22 05:00N 20°59' W 107°12'1 0.5 29.3
2014-Oct-22 04:00N 20°60' W 107°12'2 1.9 29.3
2014-Oct-22 03:00N 21°02' W 107°12'0 0.0 29.3
2014-Oct-22 02:00N 21°02' W 107°12'1 0.9 29.4
2014-Oct-22 01:00N 21°03' W 107°12'1 1.4 29.5
2014-Oct-22 00:00N 21°04' W 107°12'2 0.9 29.7
2014-Oct-21 22:00N 21°06' W 107°11'2 1.1 30.1
2014-Oct-21 20:00N 21°08' W 107°10'0 0.0 30.3
2014-Oct-21 19:00N 21°08' W 107°10'0 0.0 30.0
2014-Oct-21 18:00N 21°08' W 107°10'   29.6

Dump ship's entire track history